createdAt,value
2023-04-03T00:02:14.242Z,73.21
2023-04-03T00:04:43.416Z,73.34
2023-04-03T00:07:15.718Z,73.23
2023-04-03T00:09:45.046Z,73.06
2023-04-03T00:12:13.773Z,72.98
2023-04-03T00:14:42.941Z,72.95
2023-04-03T00:17:14.090Z,73.05
2023-04-03T00:19:43.116Z,72.94
2023-04-03T00:22:13.084Z,72.95
2023-04-03T00:24:42.493Z,72.91
2023-04-03T00:27:13.944Z,72.93
2023-04-03T00:29:43.136Z,72.74
2023-04-03T00:32:16.437Z,72.85
2023-04-03T00:34:45.489Z,72.79
2023-04-03T00:37:14.932Z,72.89
2023-04-03T00:39:45.172Z,72.73
2023-04-03T00:42:14.812Z,72.54
2023-04-03T00:45:20.239Z,72.60
2023-04-03T00:47:49.631Z,72.57
2023-04-03T00:50:18.877Z,72.50
2023-04-03T00:52:49.573Z,72.62
2023-04-03T00:55:19.001Z,72.51
2023-04-03T00:57:50.233Z,72.52
2023-04-03T01:00:24.177Z,72.61
2023-04-03T01:02:54.128Z,72.47
2023-04-03T01:05:23.695Z,72.40
2023-04-03T01:07:53.971Z,72.37
2023-04-03T01:10:23.833Z,72.44
2023-04-03T01:12:53.424Z,72.34
2023-04-03T01:15:24.976Z,72.32
2023-04-03T01:17:56.841Z,72.39
2023-04-03T01:21:01.955Z,72.52
2023-04-03T01:23:44.545Z,72.24
2023-04-03T01:26:15.983Z,72.25
2023-04-03T01:28:45.360Z,72.25
2023-04-03T01:31:23.450Z,72.29
2023-04-03T01:33:53.032Z,72.36
2023-04-03T01:36:25.712Z,72.12
2023-04-03T01:38:57.488Z,72.26
2023-04-03T01:41:27.297Z,72.03
2023-04-03T01:44:00.106Z,71.99
2023-04-03T01:46:29.849Z,72.08
2023-04-03T01:49:00.918Z,72.08
2023-04-03T01:51:29.891Z,71.95
2023-04-03T01:53:58.894Z,71.93
2023-04-03T01:56:27.875Z,72.03
2023-04-03T01:58:57.888Z,71.97
2023-04-03T02:01:27.372Z,71.87
2023-04-03T02:03:59.074Z,71.86
2023-04-03T02:06:29.315Z,71.80
2023-04-03T02:08:58.570Z,71.70
2023-04-03T02:11:27.564Z,71.71
2023-04-03T02:13:57.576Z,71.87
2023-04-03T02:16:27.004Z,71.84
2023-04-03T02:18:58.304Z,71.90
2023-04-03T02:21:27.180Z,71.89
2023-04-03T02:23:56.875Z,71.95
2023-04-03T02:26:27.165Z,71.71
2023-04-03T02:28:55.924Z,71.83
2023-04-03T02:31:25.795Z,71.83
2023-04-03T02:33:55.867Z,71.76
2023-04-03T02:36:27.545Z,71.81
2023-04-03T02:38:59.371Z,71.75
2023-04-03T02:41:34.231Z,71.84
2023-04-03T02:44:06.465Z,71.63
2023-04-03T02:46:35.740Z,71.75
2023-04-03T02:49:06.218Z,71.62
2023-04-03T02:51:35.025Z,71.75
2023-04-03T02:54:04.377Z,71.59
2023-04-03T02:56:35.329Z,71.72
2023-04-03T02:59:04.273Z,71.55
2023-04-03T03:01:33.415Z,71.60
2023-04-03T03:04:02.352Z,71.65
2023-04-03T03:06:31.334Z,71.60
2023-04-03T03:09:00.677Z,71.55
2023-04-03T03:11:29.286Z,71.52
2023-04-03T03:13:59.089Z,71.48
2023-04-03T03:16:29.080Z,71.44
2023-04-03T03:19:00.682Z,71.51
2023-04-03T03:21:29.733Z,71.64
2023-04-03T03:23:58.717Z,71.53
2023-04-03T03:26:27.443Z,71.48
2023-04-03T03:28:58.214Z,71.41
2023-04-03T03:31:27.286Z,71.41
2023-04-03T03:33:56.533Z,71.50
2023-04-03T03:36:26.897Z,71.47
2023-04-03T03:38:56.675Z,71.36
2023-04-03T03:41:26.777Z,71.36
2023-04-03T03:43:55.926Z,71.37
2023-04-03T03:46:25.752Z,71.51
2023-04-03T03:48:56.007Z,71.28
2023-04-03T03:51:24.912Z,71.30
2023-04-03T03:53:57.305Z,71.30
2023-04-03T03:56:27.081Z,71.30
2023-04-03T03:58:56.692Z,71.19
2023-04-03T04:01:26.260Z,71.23
2023-04-03T04:03:55.961Z,71.28
2023-04-03T04:06:29.154Z,71.26
2023-04-03T04:09:00.407Z,71.31
2023-04-03T04:11:29.384Z,71.35
2023-04-03T04:14:00.192Z,71.32
2023-04-03T04:16:30.715Z,71.26
2023-04-03T04:19:01.347Z,71.27
2023-04-03T04:21:30.956Z,71.23
2023-04-03T04:24:00.170Z,71.35
2023-04-03T04:26:28.784Z,71.25
2023-04-03T04:28:58.902Z,71.26
2023-04-03T04:31:28.061Z,71.24
2023-04-03T04:33:58.320Z,71.19
2023-04-03T04:36:27.395Z,71.43
2023-04-03T04:38:58.937Z,71.41
2023-04-03T04:41:28.649Z,71.32
2023-04-03T04:43:58.673Z,71.28
2023-04-03T04:46:29.558Z,71.31
2023-04-03T04:48:59.923Z,71.27
2023-04-03T04:51:35.119Z,71.46
2023-04-03T04:54:11.662Z,71.35
2023-04-03T04:56:41.302Z,71.29
2023-04-03T04:59:12.955Z,71.26
2023-04-03T05:01:42.403Z,71.25
2023-04-03T05:04:17.192Z,71.26
2023-04-03T05:06:50.041Z,71.32
2023-04-03T05:09:22.877Z,71.22
2023-04-03T05:11:52.246Z,71.36
2023-04-03T05:14:24.373Z,71.33
2023-04-03T05:16:54.480Z,71.41
2023-04-03T05:19:24.919Z,71.54
2023-04-03T05:21:55.225Z,72.37
2023-04-03T05:24:24.123Z,72.66
2023-04-03T05:26:52.714Z,72.84
2023-04-03T05:29:24.682Z,72.62
2023-04-03T05:31:53.667Z,72.60
2023-04-03T05:34:22.516Z,72.11
2023-04-03T05:36:52.461Z,71.90
2023-04-03T05:39:23.544Z,71.47
2023-04-03T05:41:53.096Z,70.87
2023-04-03T05:44:24.114Z,70.37
2023-04-03T05:46:53.261Z,70.05
2023-04-03T05:49:21.965Z,69.93
2023-04-03T05:51:51.858Z,69.87
2023-04-03T05:54:30.427Z,70.03
2023-04-03T05:57:14.677Z,70.11
2023-04-03T05:59:44.035Z,70.39
2023-04-03T06:02:17.645Z,70.43
2023-04-03T06:04:49.373Z,70.56
2023-04-03T06:07:21.450Z,70.73
2023-04-03T06:10:16.202Z,70.82
2023-04-03T06:12:48.315Z,70.90
2023-04-03T06:15:17.686Z,70.83
2023-04-03T06:17:46.287Z,70.66
2023-04-03T06:20:15.707Z,71.60
2023-04-03T06:22:46.001Z,72.66
2023-04-03T06:25:15.018Z,71.82
2023-04-03T06:27:43.874Z,71.64
2023-04-03T06:30:14.567Z,71.79
2023-04-03T06:32:43.883Z,69.96
2023-04-03T06:35:15.109Z,69.65
2023-04-03T06:37:44.191Z,70.31
2023-04-03T06:40:21.677Z,70.31
2023-04-03T06:42:51.016Z,70.93
2023-04-03T06:45:22.144Z,70.61
2023-04-03T06:47:51.207Z,70.40
2023-04-03T06:50:21.555Z,69.97
2023-04-03T06:52:51.280Z,69.62
2023-04-03T06:55:20.726Z,68.96
2023-04-03T06:57:49.788Z,68.37
2023-04-03T07:00:20.915Z,68.32
2023-04-03T07:02:49.649Z,67.75
2023-04-03T07:05:19.118Z,67.66
2023-04-03T07:07:47.928Z,67.20
2023-04-03T07:10:17.023Z,67.69
2023-04-03T07:12:45.958Z,68.37
2023-04-03T07:15:15.052Z,67.77
2023-04-03T07:17:44.498Z,66.83
2023-04-03T07:20:15.971Z,66.76
2023-04-03T07:22:45.550Z,67.11
2023-04-03T07:25:14.535Z,67.10
2023-04-03T07:27:43.522Z,67.51
2023-04-03T07:30:15.048Z,68.02
2023-04-03T07:32:44.103Z,68.42
2023-04-03T07:35:14.745Z,68.59
2023-04-03T07:37:43.660Z,68.68
2023-04-03T07:40:15.726Z,68.61
2023-04-03T07:42:44.289Z,68.90
2023-04-03T07:45:15.436Z,69.10
2023-04-03T07:47:44.437Z,69.03
2023-04-03T07:50:15.064Z,68.04
2023-04-03T07:52:43.715Z,67.72
2023-04-03T07:55:16.326Z,67.52
2023-04-03T07:57:45.580Z,67.11
2023-04-03T08:00:18.009Z,67.19
2023-04-03T08:02:50.773Z,67.48
2023-04-03T08:05:21.904Z,66.69
2023-04-03T08:07:50.891Z,66.92
2023-04-03T08:10:19.866Z,67.86
2023-04-03T08:12:49.615Z,67.60
2023-04-03T08:15:18.903Z,67.71
2023-04-03T08:17:47.626Z,67.43
2023-04-03T08:20:17.842Z,67.45
2023-04-03T08:22:46.711Z,67.48
2023-04-03T08:25:17.816Z,66.72
2023-04-03T08:27:46.669Z,65.84
2023-04-03T08:30:16.537Z,65.07
2023-04-03T08:32:46.394Z,64.75
2023-04-03T08:35:15.210Z,65.52
2023-04-03T08:37:44.036Z,65.99
2023-04-03T08:40:17.398Z,65.26
2023-04-03T08:42:59.702Z,64.18
2023-04-03T08:45:43.968Z,63.26
2023-04-03T08:48:16.951Z,63.05
2023-04-03T08:50:52.920Z,63.40
2023-04-03T08:53:27.704Z,65.44
2023-04-03T08:55:58.527Z,65.82
2023-04-03T08:58:30.306Z,65.73
2023-04-03T09:01:03.156Z,65.69
2023-04-03T09:03:33.944Z,65.10
2023-04-03T09:06:07.045Z,64.70
2023-04-03T09:08:41.981Z,63.69
2023-04-03T09:11:21.424Z,64.01
2023-04-03T09:13:58.614Z,65.10
2023-04-03T09:16:44.342Z,65.87
2023-04-03T09:19:25.486Z,65.51
2023-04-03T09:21:57.263Z,65.04
2023-04-03T09:24:28.615Z,64.26
2023-04-03T09:27:04.019Z,64.71
2023-04-03T09:29:35.965Z,64.11
2023-04-03T09:32:22.242Z,64.43
2023-04-03T09:34:53.561Z,65.09
2023-04-03T09:37:41.994Z,65.59
2023-04-03T09:40:34.702Z,64.99
2023-04-03T09:43:20.592Z,64.44
2023-04-03T09:45:51.119Z,64.47
2023-04-03T09:48:23.779Z,64.08
2023-04-03T09:51:01.735Z,63.76
2023-04-03T09:53:35.846Z,64.05
2023-04-03T09:56:22.128Z,64.48
2023-04-03T09:59:04.122Z,65.03
2023-04-03T10:01:35.425Z,65.18
2023-04-03T10:04:08.279Z,64.30
2023-04-03T10:06:43.762Z,64.19
2023-04-03T10:09:30.838Z,63.56
2023-04-03T10:12:06.056Z,62.58
2023-04-03T10:14:38.157Z,62.91
2023-04-03T10:17:20.236Z,63.85
2023-04-03T10:19:55.243Z,63.71
2023-04-03T10:22:32.983Z,62.61
2023-04-03T10:25:16.158Z,62.69
2023-04-03T10:27:55.673Z,62.84
2023-04-03T10:30:41.070Z,62.68
2023-04-03T10:33:37.717Z,62.79
2023-04-03T10:36:18.743Z,62.34
2023-04-03T10:38:58.571Z,62.75
2023-04-03T10:41:41.023Z,63.14
2023-04-03T10:44:22.226Z,63.51
2023-04-03T10:46:57.070Z,63.41
2023-04-03T10:49:42.559Z,63.27
2023-04-03T10:52:19.119Z,63.06
2023-04-03T10:54:56.754Z,62.39
2023-04-03T10:57:26.361Z,62.23
2023-04-03T11:00:00.163Z,62.69
2023-04-03T11:02:32.698Z,62.70
2023-04-03T11:05:09.695Z,62.33
2023-04-03T11:07:46.599Z,61.96
2023-04-03T11:10:24.074Z,61.89
2023-04-03T11:12:58.681Z,61.93
2023-04-03T11:15:33.535Z,61.82
2023-04-03T11:18:08.664Z,61.91
2023-04-03T11:20:46.295Z,62.44
2023-04-03T11:23:23.249Z,62.72
2023-04-03T11:25:55.242Z,62.72
2023-04-03T11:28:24.706Z,63.05
2023-04-03T11:31:03.721Z,63.08
2023-04-03T11:33:45.386Z,62.94
2023-04-03T11:36:30.250Z,62.69
2023-04-03T11:39:17.650Z,61.78
2023-04-03T11:41:47.907Z,62.00
2023-04-03T11:44:37.965Z,62.24
2023-04-03T11:47:08.732Z,61.73
2023-04-03T11:49:58.601Z,61.61
2023-04-03T11:53:02.474Z,62.04
2023-04-03T11:55:52.756Z,62.31
2023-04-03T11:58:23.296Z,62.39
2023-04-03T12:01:08.011Z,62.07
2023-04-03T12:04:04.933Z,61.74
2023-04-03T12:06:59.538Z,61.47
2023-04-03T12:09:36.233Z,61.41
2023-04-03T12:12:25.089Z,61.26
2023-04-03T12:14:54.237Z,61.03
2023-04-03T12:17:29.747Z,60.91
2023-04-03T12:19:58.665Z,61.04
2023-04-03T12:22:28.614Z,61.15
2023-04-03T12:24:57.296Z,61.25
2023-04-03T12:27:33.709Z,61.29
2023-04-03T12:30:14.310Z,61.20
2023-04-03T12:33:05.673Z,61.26
2023-04-03T12:35:45.479Z,61.86
2023-04-03T12:38:33.844Z,61.63
2023-04-03T12:41:21.582Z,61.23
2023-04-03T12:44:05.242Z,61.22
2023-04-03T12:46:41.373Z,60.80
2023-04-03T12:49:27.709Z,60.44
2023-04-03T12:51:57.910Z,60.57
2023-04-03T12:54:33.331Z,61.03
2023-04-03T12:57:13.560Z,61.42
2023-04-03T12:59:44.230Z,61.18
2023-04-03T13:02:25.762Z,60.75
2023-04-03T13:05:01.667Z,60.43
2023-04-03T13:07:33.907Z,60.46
2023-04-03T13:10:15.019Z,60.33
2023-04-03T13:12:49.778Z,60.48
2023-04-03T13:15:21.079Z,60.74
2023-04-03T13:17:53.261Z,60.73
2023-04-03T13:20:27.329Z,60.74
2023-04-03T13:23:00.885Z,60.47
2023-04-03T13:25:32.497Z,60.47
2023-04-03T13:28:13.350Z,60.33
2023-04-03T13:31:00.047Z,60.27
2023-04-03T13:33:33.381Z,60.25
2023-04-03T13:36:07.948Z,60.18
2023-04-03T13:38:36.926Z,60.16
2023-04-03T13:41:23.961Z,60.20
2023-04-03T13:43:57.551Z,60.47
2023-04-03T13:46:29.120Z,60.31
2023-04-03T13:49:19.156Z,60.17
2023-04-03T13:51:54.156Z,60.10
2023-04-03T13:54:38.578Z,60.01
2023-04-03T13:57:17.038Z,59.86
2023-04-03T13:59:46.357Z,60.14
2023-04-03T14:02:20.677Z,60.32
2023-04-03T14:04:56.887Z,60.20
2023-04-03T14:07:27.858Z,60.13
2023-04-03T14:09:58.557Z,60.20
2023-04-03T14:12:32.686Z,59.99
2023-04-03T14:15:03.873Z,59.75
2023-04-03T14:17:32.966Z,59.82
2023-04-03T14:20:02.075Z,59.70
2023-04-03T14:22:35.504Z,59.65
2023-04-03T14:25:05.782Z,59.67
2023-04-03T14:27:42.364Z,59.57
2023-04-03T14:30:17.973Z,59.42
2023-04-03T14:32:47.936Z,59.32
2023-04-03T14:35:17.589Z,59.42
2023-04-03T14:37:48.384Z,59.28
2023-04-03T14:40:20.072Z,59.32
2023-04-03T14:42:49.304Z,59.30
2023-04-03T14:45:19.293Z,59.32
2023-04-03T14:47:52.166Z,59.21
2023-04-03T14:50:24.574Z,59.16
2023-04-03T14:52:58.395Z,59.21
2023-04-03T14:55:28.165Z,59.16
2023-04-03T14:57:57.161Z,59.19
2023-04-03T15:00:26.208Z,59.12
2023-04-03T15:02:56.232Z,59.16
2023-04-03T15:05:25.682Z,59.14
2023-04-03T15:07:57.992Z,59.09
2023-04-03T15:10:29.112Z,59.11
2023-04-03T15:12:58.787Z,59.08
2023-04-03T15:15:31.059Z,59.14
2023-04-03T15:18:00.985Z,59.14
2023-04-03T15:20:31.641Z,59.08
2023-04-03T15:23:02.202Z,59.26
2023-04-03T15:25:36.012Z,59.19
2023-04-03T15:28:09.872Z,59.12
2023-04-03T15:30:42.399Z,59.02
2023-04-03T15:33:11.196Z,59.07
2023-04-03T15:35:42.564Z,58.88
2023-04-03T15:38:14.296Z,59.04
2023-04-03T15:40:44.604Z,58.96
2023-04-03T15:43:14.327Z,58.98
2023-04-03T15:45:43.911Z,58.96
2023-04-03T15:48:13.857Z,59.00
2023-04-03T15:50:43.139Z,58.92
2023-04-03T15:53:13.679Z,58.95
2023-04-03T15:55:42.871Z,58.94
2023-04-03T15:58:14.298Z,59.04
2023-04-03T16:00:44.803Z,58.96
2023-04-03T16:03:19.951Z,58.85
2023-04-03T16:05:50.172Z,58.94
2023-04-03T16:08:19.622Z,58.92
2023-04-03T16:10:48.745Z,58.74
2023-04-03T16:13:17.768Z,58.80
2023-04-03T16:15:50.860Z,58.74
2023-04-03T16:18:20.044Z,58.86
2023-04-03T16:20:51.231Z,58.77
2023-04-03T16:23:21.347Z,58.83
2023-04-03T16:25:50.744Z,58.71
2023-04-03T16:28:20.927Z,58.78
2023-04-03T16:30:50.855Z,58.76
2023-04-03T16:33:21.959Z,58.71
2023-04-03T16:35:52.556Z,58.77
2023-04-03T16:38:22.647Z,58.67
2023-04-03T16:40:57.397Z,58.90
2023-04-03T16:43:26.586Z,58.77
2023-04-03T16:45:55.786Z,58.75
2023-04-03T16:48:24.762Z,58.70
2023-04-03T16:50:58.549Z,58.77
2023-04-03T16:53:27.984Z,58.56
2023-04-03T16:56:00.296Z,58.73
2023-04-03T16:58:29.437Z,58.68
2023-04-03T17:00:58.470Z,58.63
2023-04-03T17:03:28.510Z,58.65
2023-04-03T17:05:58.077Z,58.69
2023-04-03T17:08:27.026Z,58.66
2023-04-03T17:10:57.180Z,58.68
2023-04-03T17:13:32.829Z,58.66
2023-04-03T17:16:06.688Z,58.68
2023-04-03T17:18:36.376Z,58.54
2023-04-03T17:21:07.086Z,58.55
2023-04-03T17:23:37.642Z,58.58
2023-04-03T17:26:06.839Z,58.64
2023-04-03T17:28:36.411Z,58.68
2023-04-03T17:31:06.024Z,58.72
2023-04-03T17:33:35.209Z,58.58
2023-04-03T17:36:08.636Z,58.70
2023-04-03T17:38:37.947Z,58.72
2023-04-03T17:41:08.860Z,58.60
2023-04-03T17:43:37.775Z,58.56
2023-04-03T17:46:09.313Z,58.58
2023-04-03T17:48:41.236Z,58.61
2023-04-03T17:51:12.134Z,58.60
2023-04-03T17:53:43.857Z,58.70
2023-04-03T17:56:15.828Z,58.66
2023-04-03T17:58:45.698Z,58.69
2023-04-03T18:01:17.538Z,58.71
2023-04-03T18:03:48.558Z,58.60
2023-04-03T18:06:19.989Z,58.61
2023-04-03T18:08:55.567Z,58.58
2023-04-03T18:11:35.294Z,58.58
2023-04-03T18:14:07.584Z,58.60
2023-04-03T18:16:36.346Z,58.57
2023-04-03T18:19:21.799Z,58.58
2023-04-03T18:21:52.469Z,58.71
2023-04-03T18:24:23.829Z,58.62
2023-04-03T18:26:58.895Z,58.67
2023-04-03T18:29:32.530Z,58.61
2023-04-03T18:32:04.266Z,58.58
2023-04-03T18:34:34.006Z,58.75
2023-04-03T18:37:05.501Z,58.71
2023-04-03T18:39:34.787Z,58.68
2023-04-03T18:42:10.178Z,58.76
2023-04-03T18:44:41.239Z,58.69
2023-04-03T18:47:10.348Z,58.59
2023-04-03T18:49:41.904Z,58.73
2023-04-03T18:52:11.704Z,58.70
2023-04-03T18:54:46.543Z,58.73
2023-04-03T18:57:17.175Z,58.68
2023-04-03T18:59:47.300Z,58.79
2023-04-03T19:02:24.337Z,58.75
2023-04-03T19:04:58.908Z,58.81
2023-04-03T19:07:35.407Z,58.83
2023-04-03T19:10:18.580Z,59.05
2023-04-03T19:12:52.333Z,58.88
2023-04-03T19:15:24.218Z,58.95
2023-04-03T19:17:57.238Z,59.05
2023-04-03T19:20:33.214Z,59.10
2023-04-03T19:23:08.802Z,59.01
2023-04-03T19:25:39.310Z,59.00
2023-04-03T19:28:10.630Z,59.06
2023-04-03T19:30:42.982Z,59.14
2023-04-03T19:33:16.506Z,59.15
2023-04-03T19:35:49.362Z,59.22
2023-04-03T19:38:27.100Z,59.44
2023-04-03T19:41:07.725Z,59.28
2023-04-03T19:43:51.818Z,59.20
2023-04-03T19:46:27.807Z,59.30
2023-04-03T19:49:02.064Z,59.41
2023-04-03T19:51:33.290Z,59.38
2023-04-03T19:54:01.946Z,59.35
2023-04-03T19:56:34.496Z,59.35
2023-04-03T19:59:04.631Z,59.38
2023-04-03T20:01:35.289Z,59.46
2023-04-03T20:04:06.157Z,59.42
2023-04-03T20:06:42.858Z,59.45
2023-04-03T20:09:11.781Z,59.47
2023-04-03T20:11:42.690Z,59.42
2023-04-03T20:14:11.890Z,59.48
2023-04-03T20:16:42.925Z,59.40
2023-04-03T20:19:11.918Z,59.57
2023-04-03T20:21:43.300Z,59.60
2023-04-03T20:24:15.609Z,59.57
2023-04-03T20:26:46.581Z,59.69
2023-04-03T20:29:17.192Z,59.61
2023-04-03T20:31:46.881Z,59.60
2023-04-03T20:34:17.833Z,59.62
2023-04-03T20:38:38.925Z,59.72
2023-04-03T20:39:37.840Z,59.65
2023-04-03T20:42:11.859Z,59.66
2023-04-03T20:44:45.592Z,59.70
2023-04-03T20:47:15.656Z,59.77
2023-04-03T20:49:45.079Z,59.75
2023-04-03T20:52:15.038Z,59.72
2023-04-03T20:54:43.660Z,59.79
2023-04-03T20:57:15.292Z,59.74
2023-04-03T20:59:44.606Z,59.74
2023-04-03T21:02:15.900Z,59.74
2023-04-03T21:04:48.699Z,59.82
2023-04-03T21:07:53.926Z,59.90
2023-04-03T21:10:58.887Z,59.76
2023-04-03T21:14:04.945Z,59.84
2023-04-03T21:16:32.190Z,59.84
2023-04-03T21:19:15.076Z,59.91
2023-04-03T21:21:46.956Z,59.96
2023-04-03T21:24:17.869Z,59.98
2023-04-03T21:26:46.716Z,59.92
2023-04-03T21:29:16.627Z,59.90
2023-04-03T21:31:51.950Z,59.92
2023-04-03T21:34:21.798Z,60.05
2023-04-03T21:36:52.405Z,60.09
2023-04-03T21:39:22.531Z,59.99
2023-04-03T21:41:51.879Z,59.98
2023-04-03T21:44:21.922Z,60.08
2023-04-03T21:46:53.761Z,60.09
2023-04-03T21:49:23.345Z,60.07
2023-04-03T21:51:53.737Z,60.05
2023-04-03T21:54:22.418Z,60.12
2023-04-03T21:56:52.039Z,60.12
2023-04-03T21:59:20.691Z,60.16
2023-04-03T22:01:49.756Z,60.12
2023-04-03T22:04:19.452Z,60.24
2023-04-03T22:06:56.050Z,60.15
2023-04-03T22:09:25.209Z,60.28
2023-04-03T22:11:55.062Z,60.22
2023-04-03T22:14:23.708Z,60.22
2023-04-03T22:16:52.793Z,60.29
2023-04-03T22:19:21.889Z,60.34
2023-04-03T22:21:50.976Z,60.45
2023-04-03T22:24:21.213Z,60.39
2023-04-03T22:26:52.650Z,60.36
2023-04-03T22:29:21.456Z,60.42
2023-04-03T22:31:50.532Z,60.50
2023-04-03T22:34:20.314Z,60.53
2023-04-03T22:36:48.960Z,60.53
2023-04-03T22:39:18.850Z,60.55
2023-04-03T22:41:50.000Z,60.55
2023-04-03T22:44:19.344Z,60.61
2023-04-03T22:46:47.983Z,60.54
2023-04-03T22:49:16.708Z,60.64
2023-04-03T22:51:46.057Z,60.67
2023-04-03T22:54:16.382Z,60.66
2023-04-03T22:56:45.194Z,60.73
2023-04-03T22:59:16.508Z,60.66
2023-04-03T23:01:45.179Z,60.74
2023-04-03T23:04:15.909Z,60.72
2023-04-03T23:06:44.548Z,60.80
2023-04-03T23:09:15.810Z,60.84
2023-04-03T23:11:44.376Z,60.88
2023-04-03T23:14:17.865Z,60.98
2023-04-03T23:16:46.596Z,61.00
2023-04-03T23:19:16.267Z,60.86
2023-04-03T23:21:46.163Z,60.83
2023-04-03T23:24:16.119Z,60.91
2023-04-03T23:26:44.679Z,61.01
2023-04-03T23:29:15.362Z,61.00
2023-04-03T23:31:47.362Z,60.94
2023-04-03T23:34:16.501Z,60.92
2023-04-03T23:36:45.088Z,61.11
2023-04-03T23:39:19.362Z,61.03
2023-04-03T23:41:49.104Z,61.11
2023-04-03T23:44:18.942Z,61.13
2023-04-03T23:46:47.718Z,61.00
2023-04-03T23:49:16.685Z,61.04
2023-04-03T23:51:45.607Z,61.20
2023-04-03T23:54:14.878Z,61.08
2023-04-03T23:56:44.081Z,61.15
2023-04-03T23:59:14.601Z,61.16
